Time;durP1;ratioP1;P1;durP2;ratioP2;P2;SDS_P1;SDS_P2;PMS_P1;PMS_P2;Temp;Humidity;BMP_temperature;BMP_pressure;BME280_temperature;BME280_humidity;BME280_pressure;Samples;Min_cycle;Max_cycle;Signal;HPM_P1;HPM_P2
2023/04/21 00:00:32;;;;;;;4.35;2.80;;;;;;;8.55;70.60;101651.78;4976493;28;96823;-32
2023/04/21 00:02:57;;;;;;;6.38;3.33;;;;;;;8.53;73.34;101637.47;4976142;28;97769;-33
2023/04/21 00:05:23;;;;;;;6.38;3.45;;;;;;;8.53;70.71;101642.88;4976221;28;98749;-30
2023/04/21 00:07:48;;;;;;;6.15;3.22;;;;;;;8.52;70.91;101646.53;4976379;28;96438;-30
2023/04/21 00:10:14;;;;;;;4.95;2.83;;;;;;;8.52;72.24;101658.19;4976170;28;96885;-30
2023/04/21 00:12:40;;;;;;;8.82;3.85;;;;;;;8.49;72.72;101653.81;4975321;28;97903;-31
2023/04/21 00:15:06;;;;;;;5.18;3.05;;;;;;;8.53;74.38;101659.06;4974564;28;100846;-30
2023/04/21 00:17:31;;;;;;;6.63;3.20;;;;;;;8.53;73.32;101659.06;4974632;28;96577;-30
2023/04/21 00:19:57;;;;;;;4.68;2.78;;;;;;;8.54;73.81;101663.56;4975943;28;96875;-32
2023/04/21 00:22:23;;;;;;;6.05;2.85;;;;;;;8.51;72.41;101661.84;4975680;28;99304;-31
2023/04/21 00:24:48;;;;;;;5.05;2.92;;;;;;;8.47;73.50;101663.78;4975734;28;98352;-31
2023/04/21 00:27:14;;;;;;;4.65;3.13;;;;;;;8.46;73.99;101666.53;4976111;28;96482;-30
2023/04/21 00:29:40;;;;;;;6.25;3.20;;;;;;;8.40;73.13;101670.38;4976143;28;96806;-31
2023/04/21 00:32:09;;;;;;;4.80;3.13;;;;;;;8.40;74.80;101654.16;4975523;28;97842;-30
2023/04/21 00:34:35;;;;;;;5.03;3.35;;;;;;;8.43;73.21;101654.03;4975529;28;99395;-31
2023/04/21 00:37:00;;;;;;;4.70;2.97;;;;;;;8.39;72.55;101651.47;4975285;28;96584;-30
2023/04/21 00:39:26;;;;;;;4.50;3.30;;;;;;;8.36;73.88;101652.50;4975921;28;96723;-30
2023/04/21 00:41:51;;;;;;;5.05;2.72;;;;;;;8.34;74.22;101632.78;4975024;28;99150;-30
2023/04/21 00:44:16;;;;;;;4.82;3.15;;;;;;;8.31;74.87;101630.19;4975108;28;104822;-31
2023/04/21 00:46:42;;;;;;;4.65;3.15;;;;;;;8.31;74.85;101627.50;4975424;28;96667;-31
2023/04/21 00:49:07;;;;;;;4.25;2.65;;;;;;;8.31;75.11;101622.09;4975178;28;97032;-30
2023/04/21 00:51:35;;;;;;;5.07;2.83;;;;;;;8.29;75.20;101624.88;4975512;28;97869;-30
2023/04/21 00:54:06;;;;;;;7.55;3.08;;;;;;;8.27;74.98;101615.06;4957899;28;100625;-31
2023/04/21 00:56:34;;;;;;;4.05;2.80;;;;;;;8.20;76.86;101611.75;4974022;28;96799;-30
2023/04/21 00:59:00;;;;;;;4.53;2.58;;;;;;;8.18;78.17;101612.75;4974284;28;96834;-30
2023/04/21 01:01:29;;;;;;;4.93;3.25;;;;;;;8.18;76.15;101601.97;4973288;28;100956;-30
2023/04/21 01:03:58;;;;;;;5.80;3.05;;;;;;;8.16;74.75;101598.44;4973322;28;101003;-31
2023/04/21 01:06:23;;;;;;;4.03;2.70;;;;;;;8.18;78.25;101607.34;4973618;28;96602;-30
2023/04/21 01:08:51;;;;;;;5.35;2.60;;;;;;;8.22;77.91;101607.19;4975814;28;96759;-31
2023/04/21 01:11:17;;;;;;;3.85;2.35;;;;;;;8.25;77.74;101607.03;4973581;28;101185;-30
2023/04/21 01:13:42;;;;;;;5.72;3.10;;;;;;;8.23;77.61;101605.34;4975122;28;97329;-30
2023/04/21 01:16:07;;;;;;;8.07;3.33;;;;;;;8.27;76.66;101613.25;4975400;28;96596;-30
2023/04/21 01:18:34;;;;;;;6.20;2.78;;;;;;;8.22;77.85;101608.97;4975790;28;96774;-32
2023/04/21 01:21:00;;;;;;;5.10;2.88;;;;;;;8.22;76.92;101615.28;4973581;28;101391;-30
2023/04/21 01:23:25;;;;;;;5.65;3.45;;;;;;;8.22;77.53;101604.47;4975024;28;97255;-32
2023/04/21 01:25:51;;;;;;;5.80;3.50;;;;;;;8.22;78.31;101611.66;4974623;28;96565;-31
2023/04/21 01:28:24;;;;;;;3.85;2.80;;;;;;;8.25;77.48;101612.44;4973666;28;96792;-30
2023/04/21 01:30:50;;;;;;;5.47;3.30;;;;;;;8.24;78.26;101612.50;4972431;28;100907;-30
2023/04/21 01:33:16;;;;;;;7.78;2.92;;;;;;;8.25;79.31;101614.25;4973461;28;100444;-32
2023/04/21 01:35:41;;;;;;;5.65;3.50;;;;;;;8.22;78.12;101607.19;4973747;28;96578;-32
2023/04/21 01:38:07;;;;;;;5.45;3.15;;;;;;;8.18;76.50;101596.56;4974914;28;96842;-31
2023/04/21 01:40:32;;;;;;;4.88;2.67;;;;;;;8.17;78.04;101601.06;4974776;28;97437;-30
2023/04/21 01:42:58;;;;;;;5.82;3.50;;;;;;;8.12;78.36;101594.09;4975145;28;97388;-30
2023/04/21 01:45:23;;;;;;;10.57;3.90;;;;;;;8.09;79.52;101589.69;4973503;28;96611;-30
2023/04/21 01:47:49;;;;;;;5.47;3.17;;;;;;;8.11;79.57;101595.03;4973640;28;96793;-32
2023/04/21 01:50:14;;;;;;;6.78;3.25;;;;;;;8.11;78.36;101582.41;4974043;28;97421;-30
2023/04/21 01:52:40;;;;;;;6.15;3.38;;;;;;;8.09;78.21;101582.47;4974286;28;99184;-30
2023/04/21 01:55:06;;;;;;;6.43;3.60;;;;;;;8.06;76.56;101577.22;4975053;28;96562;-31
2023/04/21 01:57:31;;;;;;;7.60;3.10;;;;;;;8.11;79.09;101589.66;4974595;28;96817;-30
2023/04/21 01:59:57;;;;;;;5.05;3.22;;;;;;;8.05;79.65;101571.84;4974669;28;97388;-31
2023/04/21 02:02:22;;;;;;;5.60;3.55;;;;;;;8.08;79.21;101566.38;4974358;28;99213;-30
2023/04/21 02:04:47;;;;;;;4.88;3.38;;;;;;;8.13;80.53;101569.75;4973492;28;96547;-30
2023/04/21 02:07:13;;;;;;;6.88;3.72;;;;;;;8.10;78.65;101561.75;4974782;28;96798;-32
2023/04/21 02:09:38;;;;;;;5.13;3.03;;;;;;;8.15;79.38;101573.28;4974477;28;97221;-30
2023/04/21 02:12:04;;;;;;;6.32;3.28;;;;;;;8.13;78.77;101575.16;4974525;28;97344;-30
2023/04/21 02:14:29;;;;;;;6.15;3.47;;;;;;;8.08;80.23;101560.97;4973998;28;96433;-30
2023/04/21 02:16:55;;;;;;;6.60;3.63;;;;;;;8.11;79.22;101571.63;4976563;28;96813;-31
2023/04/21 02:19:20;;;;;;;5.72;3.45;;;;;;;8.10;80.04;101569.84;4977842;28;97854;-30
2023/04/21 02:21:46;;;;;;;10.07;3.55;;;;;;;8.09;79.87;101560.88;4977689;28;97799;-30
2023/04/21 02:24:11;;;;;;;5.55;3.47;;;;;;;8.03;80.09;101558.44;4977920;28;96656;-30
2023/04/21 02:26:36;;;;;;;5.55;3.30;;;;;;;8.08;79.52;101550.19;4976688;28;96840;-31
2023/04/21 02:29:02;;;;;;;6.78;3.45;;;;;;;8.06;79.69;101558.31;4977472;28;99159;-30
2023/04/21 02:31:27;;;;;;;5.20;2.67;;;;;;;7.99;82.97;101551.41;4977360;28;98255;-31
2023/04/21 02:33:53;;;;;;;5.05;3.03;;;;;;;8.02;81.78;101556.66;4977822;28;96606;-30
2023/04/21 02:36:19;;;;;;;6.18;3.22;;;;;;;8.07;80.40;101553.78;4978027;28;96729;-30
2023/04/21 02:38:44;;;;;;;5.95;3.42;;;;;;;8.08;80.63;101550.19;4975490;28;99049;-30
2023/04/21 02:41:09;;;;;;;5.63;3.15;;;;;;;8.05;79.90;101540.34;4976986;28;106125;-32
2023/04/21 02:43:35;;;;;;;7.40;2.80;;;;;;;8.01;82.26;101554.94;4977842;28;96700;-31
2023/04/21 02:46:08;;;;;;;6.78;3.33;;;;;;;8.00;81.64;101544.19;4977798;28;96801;-30
2023/04/21 02:48:36;;;;;;;4.78;2.88;;;;;;;8.02;81.02;101550.41;4975809;28;101295;-31
2023/04/21 02:51:03;;;;;;;6.50;3.55;;;;;;;8.02;80.22;101537.78;4977034;28;97414;-30
2023/04/21 02:53:28;;;;;;;5.80;3.35;;;;;;;8.01;81.59;101527.09;4976142;28;96554;-30
2023/04/21 02:55:54;;;;;;;4.45;2.70;;;;;;;8.03;82.01;101535.97;4977903;28;96740;-33
2023/04/21 02:58:19;;;;;;;6.35;3.40;;;;;;;8.02;81.22;101536.91;4976855;28;98998;-31
2023/04/21 03:00:45;;;;;;;6.88;2.80;;;;;;;8.02;81.32;101543.19;4976862;28;99185;-30
2023/04/21 03:03:10;;;;;;;6.00;3.22;;;;;;;8.06;81.68;101543.97;4976858;28;96536;-30
2023/04/21 03:05:35;;;;;;;3.42;2.58;;;;;;;8.05;82.02;101543.06;4977717;28;96738;-31
2023/04/21 03:08:01;;;;;;;5.57;2.78;;;;;;;8.09;81.59;101541.13;4976941;28;97828;-30
2023/04/21 03:10:26;;;;;;;4.05;2.70;;;;;;;8.03;81.48;101536.88;4976964;28;97281;-30
2023/04/21 03:12:52;;;;;;;4.55;3.03;;;;;;;8.06;82.33;101538.56;4977172;28;96453;-31
2023/04/21 03:15:18;;;;;;;6.25;3.47;;;;;;;8.06;80.11;101525.94;4977108;28;96475;-30
2023/04/21 03:17:43;;;;;;;6.68;4.07;;;;;;;8.08;80.85;101528.59;4975175;28;101403;-30
2023/04/21 03:20:10;;;;;;;4.60;3.22;;;;;;;8.07;80.74;101519.59;4976976;28;97860;-30
2023/04/21 03:22:36;;;;;;;6.15;2.95;;;;;;;8.02;82.02;101521.59;4975594;28;96514;-31
2023/04/21 03:25:03;;;;;;;6.85;2.60;;;;;;;8.02;80.94;101507.25;4975551;28;96870;-31
2023/04/21 03:27:29;;;;;;;4.82;3.22;;;;;;;8.02;81.61;101507.25;4974009;28;101041;-31
2023/04/21 03:29:54;;;;;;;7.00;3.33;;;;;;;8.04;81.33;101510.75;4976167;28;99714;-31
2023/04/21 03:32:19;;;;;;;6.32;3.25;;;;;;;8.08;80.46;101504.31;4976239;28;96730;-31
2023/04/21 03:34:45;;;;;;;4.95;3.28;;;;;;;8.05;81.67;101507.09;4976620;28;96830;-31
2023/04/21 03:37:10;;;;;;;5.43;3.13;;;;;;;8.05;81.08;101510.69;4976333;28;99183;-30
2023/04/21 03:39:35;;;;;;;4.43;3.05;;;;;;;8.07;81.95;101506.09;4976361;28;98988;-30
2023/04/21 03:42:01;;;;;;;4.63;2.90;;;;;;;8.05;80.80;101499.88;4976829;28;96541;-30
2023/04/21 03:44:27;;;;;;;6.68;3.35;;;;;;;8.08;81.05;101497.09;4976896;28;96859;-30
2023/04/21 03:46:53;;;;;;;6.63;4.75;;;;;;;8.07;82.26;101495.31;4974981;28;99326;-30
2023/04/21 03:49:19;;;;;;;4.65;3.20;;;;;;;8.07;81.41;101480.94;4974700;28;100934;-30
2023/04/21 03:51:44;;;;;;;7.40;3.40;;;;;;;8.07;81.72;101500.72;4974707;28;96564;-30
2023/04/21 03:54:10;;;;;;;5.25;3.53;;;;;;;8.04;82.56;101491.88;4976369;28;96821;-31
2023/04/21 03:56:35;;;;;;;7.22;3.58;;;;;;;8.03;83.19;101496.41;4976182;28;97369;-30
2023/04/21 03:59:01;;;;;;;6.07;3.78;;;;;;;7.99;82.15;101492.06;4975974;28;99530;-31
2023/04/21 04:01:26;;;;;;;5.38;3.35;;;;;;;8.00;81.93;101487.53;4976776;28;96584;-30
2023/04/21 04:03:51;;;;;;;7.45;4.28;;;;;;;8.00;82.51;101484.84;4976569;28;96788;-31
2023/04/21 04:06:16;;;;;;;6.65;3.75;;;;;;;7.97;81.67;101472.34;4976208;28;97403;-31
2023/04/21 04:08:42;;;;;;;5.90;3.85;;;;;;;7.97;83.04;101469.66;4976413;28;97880;-30
2023/04/21 04:11:07;;;;;;;6.03;3.42;;;;;;;8.01;81.39;101489.31;4976480;28;96407;-31
2023/04/21 04:13:32;;;;;;;6.85;3.90;;;;;;;7.94;84.14;101479.72;4976347;28;96734;-31
2023/04/21 04:15:58;;;;;;;6.68;4.03;;;;;;;7.96;82.96;101488.59;4975363;28;99359;-31
2023/04/21 04:18:24;;;;;;;4.55;3.13;;;;;;;7.93;82.52;101486.91;4975886;28;97949;-31
2023/04/21 04:20:49;;;;;;;6.78;4.05;;;;;;;7.93;82.57;101478.81;4974665;28;96740;-31
2023/04/21 04:23:15;;;;;;;8.80;4.80;;;;;;;7.98;83.42;101478.63;4976159;28;96769;-30
2023/04/21 04:25:41;;;;;;;7.38;4.13;;;;;;;7.95;84.29;101470.66;4975826;28;97897;-31
2023/04/21 04:28:06;;;;;;;5.40;3.38;;;;;;;7.95;84.80;101479.63;4975490;28;99395;-31
2023/04/21 04:30:33;;;;;;;6.72;3.92;;;;;;;7.95;83.16;101473.34;4975484;28;96683;-31
2023/04/21 04:32:58;;;;;;;9.40;3.88;;;;;;;7.94;83.74;101482.41;4974740;28;97085;-32
2023/04/21 04:35:23;;;;;;;11.32;5.03;;;;;;;7.97;83.77;101491.25;4975619;28;97216;-30
2023/04/21 04:37:49;;;;;;;7.95;3.92;;;;;;;7.99;83.31;101489.38;4975378;28;98839;-30
2023/04/21 04:40:15;;;;;;;7.68;4.30;;;;;;;7.99;84.92;101492.06;4972682;28;96744;-31
2023/04/21 04:42:41;;;;;;;6.40;3.97;;;;;;;7.95;84.51;101474.22;4975959;28;96727;-31
2023/04/21 04:45:08;;;;;;;10.18;5.22;;;;;;;7.98;84.02;101484.88;4975448;28;97932;-30
2023/04/21 04:47:36;;;;;;;6.88;4.35;;;;;;;7.99;83.92;101475.88;4973982;28;101533;-30
2023/04/21 04:50:03;;;;;;;7.15;4.07;;;;;;;7.98;82.99;101484.88;4973874;28;96828;-31
2023/04/21 04:52:29;;;;;;;9.10;4.80;;;;;;;7.98;84.37;101487.59;4974216;28;96876;-32
2023/04/21 04:54:54;;;;;;;9.45;4.80;;;;;;;8.02;83.44;101485.66;4975083;28;99413;-30
2023/04/21 04:57:19;;;;;;;7.10;4.28;;;;;;;8.01;83.96;101486.63;4975318;28;99166;-31
2023/04/21 04:59:45;;;;;;;7.00;4.55;;;;;;;8.00;84.21;101483.00;4975480;28;96577;-30
2023/04/21 05:02:11;;;;;;;8.63;4.35;;;;;;;7.98;85.75;101492.09;4975259;28;96795;-32
2023/04/21 05:04:37;;;;;;;7.65;4.10;;;;;;;7.99;83.96;101492.06;4973281;28;100931;-30
2023/04/21 05:07:04;;;;;;;10.38;5.07;;;;;;;7.96;85.26;101485.88;4975088;28;96578;-30
2023/04/21 05:09:30;;;;;;;6.57;4.65;;;;;;;7.98;85.95;101495.69;4975346;28;96588;-31
2023/04/21 05:11:55;;;;;;;6.82;4.38;;;;;;;7.99;84.00;101489.38;4975591;28;96765;-30
2023/04/21 05:14:20;;;;;;;8.43;4.55;;;;;;;7.98;84.57;101492.97;4975389;28;97275;-30
2023/04/21 05:16:46;;;;;;;8.60;5.32;;;;;;;7.99;83.29;101492.06;4974927;28;97311;-31
2023/04/21 05:19:11;;;;;;;7.68;4.25;;;;;;;7.98;84.75;101478.63;4975214;28;96483;-30
2023/04/21 05:21:36;;;;;;;7.80;4.32;;;;;;;8.01;84.69;101487.47;4975711;28;96834;-30
2023/04/21 05:24:02;;;;;;;6.97;4.55;;;;;;;7.99;84.04;101485.78;4975115;28;97357;-31
2023/04/21 05:26:28;;;;;;;5.88;4.05;;;;;;;8.01;84.68;101497.41;4975069;28;97774;-30
2023/04/21 05:28:55;;;;;;;8.55;4.40;;;;;;;8.01;85.26;101486.63;4973359;28;96599;-30
2023/04/21 05:31:21;;;;;;;8.38;4.70;;;;;;;8.05;85.13;101497.19;4974095;28;96819;-31
2023/04/21 05:33:46;;;;;;;10.18;5.07;;;;;;;8.02;84.83;101497.31;4973192;28;101300;-31
2023/04/21 05:36:11;;;;;;;7.05;4.40;;;;;;;8.04;86.21;101494.56;4974842;28;100103;-32
2023/04/21 05:38:37;;;;;;;7.22;3.85;;;;;;;8.03;87.98;101499.09;4975179;28;96498;-30
2023/04/21 05:41:03;;;;;;;8.65;4.65;;;;;;;8.07;85.46;101503.41;4973617;28;96757;-31
2023/04/21 05:43:32;;;;;;;9.13;4.90;;;;;;;8.09;85.56;101511.44;4973320;28;101177;-30
2023/04/21 05:45:57;;;;;;;7.97;4.40;;;;;;;8.09;85.80;101509.63;4973018;28;101149;-30
2023/04/21 05:48:23;;;;;;;9.25;4.65;;;;;;;8.15;85.72;101503.13;4971491;28;96964;-33
2023/04/21 05:50:48;;;;;;;9.13;5.22;;;;;;;8.18;85.49;101500.28;4972687;28;97253;-31
2023/04/21 05:53:14;;;;;;;8.07;4.53;;;;;;;8.19;86.37;101510.13;4974545;28;97739;-31
2023/04/21 05:55:39;;;;;;;8.50;4.07;;;;;;;8.21;85.67;101523.56;4974576;28;97717;-31
2023/04/21 05:58:05;;;;;;;7.68;4.28;;;;;;;8.21;85.25;101500.16;4974861;28;96569;-30
2023/04/21 06:00:30;;;;;;;6.95;4.55;;;;;;;8.25;85.18;101514.41;4974873;28;96798;-33
2023/04/21 06:02:55;;;;;;;8.07;4.88;;;;;;;8.24;85.93;101520.72;4974447;28;97818;-31
2023/04/21 06:05:21;;;;;;;9.32;5.85;;;;;;;8.24;87.06;101521.59;4974328;28;99108;-31
2023/04/21 06:07:46;;;;;;;8.15;4.80;;;;;;;8.24;87.10;101523.44;4974647;28;96629;-30
2023/04/21 06:10:12;;;;;;;9.30;4.88;;;;;;;8.27;87.06;101518.81;4975285;28;96799;-30
2023/04/21 06:12:37;;;;;;;11.43;6.20;;;;;;;8.30;87.72;101517.78;4956638;28;100521;-31
2023/04/21 06:15:03;;;;;;;8.65;5.45;;;;;;;8.34;87.39;101518.53;4974464;28;97371;-30
2023/04/21 06:17:29;;;;;;;9.75;5.30;;;;;;;8.34;88.74;101524.78;4973857;28;96665;-31
2023/04/21 06:19:54;;;;;;;9.45;4.95;;;;;;;8.31;89.50;101508.75;4974539;28;96846;-30
2023/04/21 06:22:24;;;;;;;8.90;5.10;;;;;;;8.37;89.01;101518.41;4973881;28;99353;-30
2023/04/21 06:24:49;;;;;;;9.77;5.57;;;;;;;8.35;88.32;101518.47;4971748;28;100796;-31
2023/04/21 06:27:15;;;;;;;15.63;7.75;;;;;;;8.40;88.51;101527.28;4973012;28;96565;-32
2023/04/21 06:29:41;;;;;;;12.40;6.88;;;;;;;8.41;88.11;101518.22;4956408;28;96812;-32
2023/04/21 06:32:07;;;;;;;10.38;6.40;;;;;;;8.45;87.99;101521.69;4972465;28;100933;-31
2023/04/21 06:34:32;;;;;;;13.43;7.00;;;;;;;8.42;88.75;101514.63;4974437;28;98946;-31
2023/04/21 06:36:57;;;;;;;11.23;6.43;;;;;;;8.43;89.26;101513.66;4974523;28;96463;-30
2023/04/21 06:39:23;;;;;;;11.38;6.82;;;;;;;8.42;89.82;101511.91;4974566;28;96744;-31
2023/04/21 06:41:48;;;;;;;12.98;6.90;;;;;;;8.49;88.95;101513.41;4973170;28;109854;-30
2023/04/21 06:44:13;;;;;;;13.10;7.45;;;;;;;8.54;88.71;101515.91;4974034;28;97877;-31
2023/04/21 06:46:40;;;;;;;14.95;9.10;;;;;;;8.54;88.66;101513.22;4974327;28;96722;-30
2023/04/21 06:49:06;;;;;;;15.57;8.02;;;;;;;8.56;87.79;101507.75;4972666;28;96914;-30
2023/04/21 06:51:32;;;;;;;15.00;8.75;;;;;;;8.58;88.19;101516.66;4974226;28;97508;-30
2023/04/21 06:53:57;;;;;;;14.88;9.15;;;;;;;8.58;88.17;101516.66;4973992;28;97808;-30
2023/04/21 06:56:22;;;;;;;11.35;7.00;;;;;;;8.59;90.37;101513.03;4974445;28;96711;-32
2023/04/21 06:58:48;;;;;;;14.35;7.45;;;;;;;8.64;89.85;101521.81;4974458;28;96983;-30
2023/04/21 07:01:13;;;;;;;9.60;6.07;;;;;;;8.63;90.21;101510.13;4973376;28;99258;-31
2023/04/21 07:03:38;;;;;;;10.98;6.03;;;;;;;8.64;88.80;101511.88;4975689;28;97760;-31
2023/04/21 07:06:04;;;;;;;11.77;6.07;;;;;;;8.60;91.32;101509.38;4977295;28;96837;-30
2023/04/21 07:08:29;;;;;;;12.05;6.47;;;;;;;8.56;91.12;101500.53;4977227;28;96804;-31
2023/04/21 07:10:55;;;;;;;10.20;5.57;;;;;;;8.61;90.20;101509.31;4976994;28;97774;-30
2023/04/21 07:13:20;;;;;;;12.70;6.60;;;;;;;8.59;91.14;101503.09;4977017;28;97821;-32
2023/04/21 07:15:45;;;;;;;12.38;6.47;;;;;;;8.61;90.79;101503.91;4977301;28;96495;-30
2023/04/21 07:18:11;;;;;;;9.65;5.97;;;;;;;8.67;89.74;101510.84;4977255;28;96734;-30
2023/04/21 07:20:36;;;;;;;12.55;6.25;;;;;;;8.65;90.35;101504.66;4976765;28;99524;-30
2023/04/21 07:23:02;;;;;;;11.05;6.40;;;;;;;8.74;89.29;101506.06;4977298;28;97788;-30
2023/04/21 07:25:27;;;;;;;8.88;5.50;;;;;;;8.79;88.07;101502.22;4976905;28;96764;-31
2023/04/21 07:27:52;;;;;;;12.88;7.10;;;;;;;8.93;88.86;101501.63;4977097;28;96717;-30
2023/04/21 07:30:18;;;;;;;12.75;6.53;;;;;;;9.03;88.90;101502.97;4976023;28;97412;-32
2023/04/21 07:32:43;;;;;;;11.20;6.57;;;;;;;9.04;89.51;101496.63;4976097;28;98834;-30
2023/04/21 07:35:09;;;;;;;10.95;5.72;;;;;;;9.01;89.49;101502.19;4976999;28;96482;-30
2023/04/21 07:37:34;;;;;;;10.93;7.25;;;;;;;9.05;88.36;101500.19;4976541;28;96881;-30
2023/04/21 07:40:00;;;;;;;15.63;7.70;;;;;;;9.10;87.87;101506.28;4976503;28;97504;-30
2023/04/21 07:42:25;;;;;;;13.50;7.45;;;;;;;9.16;87.99;101516.81;4976284;28;99138;-30
2023/04/21 07:44:51;;;;;;;14.73;7.80;;;;;;;9.18;87.21;101517.63;4976597;28;96608;-31
2023/04/21 07:47:17;;;;;;;12.70;7.18;;;;;;;9.13;87.71;101520.53;4975524;28;96779;-30
2023/04/21 07:49:42;;;;;;;16.58;7.93;;;;;;;9.18;87.58;101531.16;4975952;28;99581;-30
2023/04/21 07:52:08;;;;;;;16.38;7.53;;;;;;;9.21;87.19;101513.91;4976440;28;97106;-31
2023/04/21 07:54:33;;;;;;;13.23;6.97;;;;;;;9.34;87.94;101515.09;4976240;28;96654;-30
2023/04/21 07:56:58;;;;;;;13.90;7.55;;;;;;;9.36;87.71;101522.19;4976891;28;96913;-30
2023/04/21 07:59:24;;;;;;;13.50;7.10;;;;;;;9.34;87.16;101518.69;4994521;28;98765;-31
2023/04/21 08:01:50;;;;;;;14.50;7.97;;;;;;;9.45;87.05;101514.63;4995880;28;99354;-31
2023/04/21 08:04:16;;;;;;;13.43;7.72;;;;;;;9.64;85.77;101504.69;4994983;28;96533;-31
2023/04/21 08:06:41;;;;;;;14.15;6.75;;;;;;;9.72;85.78;101507.88;4994933;28;96907;-30
2023/04/21 08:09:07;;;;;;;15.25;7.38;;;;;;;9.85;85.38;101496.50;4996126;28;97865;-32
2023/04/21 08:11:32;;;;;;;14.30;7.63;;;;;;;10.26;84.58;101505.31;4994817;28;100759;-32
2023/04/21 08:13:57;;;;;;;12.43;6.82;;;;;;;10.67;82.84;101498.78;4995849;28;96673;-30
2023/04/21 08:16:23;;;;;;;13.85;7.38;;;;;;;10.72;82.26;101508.41;4996293;28;96834;-30
2023/04/21 08:18:48;;;;;;;12.60;7.82;;;;;;;10.77;81.79;101505.47;4995269;28;97389;-30
2023/04/21 08:21:13;;;;;;;14.57;8.02;;;;;;;10.73;81.69;101495.75;4995615;28;99151;-30
2023/04/21 08:23:39;;;;;;;14.40;8.48;;;;;;;11.09;81.11;101492.94;4995772;28;97017;-31
2023/04/21 08:26:05;;;;;;;17.52;8.30;;;;;;;11.64;79.50;101486.34;4995840;28;96903;-31
2023/04/21 08:28:30;;;;;;;12.65;7.78;;;;;;;12.04;78.27;101504.00;4995481;28;98815;-32
2023/04/21 08:30:55;;;;;;;14.02;6.75;;;;;;;11.78;76.66;101493.72;4994811;28;97334;-30
2023/04/21 08:33:21;;;;;;;13.02;8.00;;;;;;;11.55;77.55;101490.44;4995909;28;96636;-31
2023/04/21 08:35:46;;;;;;;14.73;8.18;;;;;;;11.73;77.84;101491.25;4996317;28;96765;-31
2023/04/21 08:38:11;;;;;;;13.20;6.82;;;;;;;11.97;76.05;101496.28;4995559;28;97985;-30
2023/04/21 08:40:37;;;;;;;13.63;7.55;;;;;;;12.02;75.29;101496.91;4995547;28;97749;-31
2023/04/21 08:43:07;;;;;;;14.77;8.43;;;;;;;12.40;75.02;101491.09;4993781;28;96612;-31
2023/04/21 08:45:33;;;;;;;13.85;7.13;;;;;;;12.48;73.11;101486.94;4995603;28;96828;-31
2023/04/21 08:48:00;;;;;;;14.00;7.60;;;;;;;12.69;72.80;101490.22;4993837;28;101360;-31
2023/04/21 08:50:28;;;;;;;11.90;5.93;;;;;;;12.74;70.86;101492.66;4994703;28;99188;-30
2023/04/21 08:52:55;;;;;;;11.73;7.65;;;;;;;12.65;71.38;101488.63;4977667;28;96552;-30
2023/04/21 08:55:31;;;;;;;13.98;6.57;;;;;;;12.40;71.60;101488.38;4994051;28;96804;-30
2023/04/21 08:57:57;;;;;;;14.23;6.93;;;;;;;12.35;72.01;101487.75;4993709;28;99022;-30
2023/04/21 09:00:22;;;;;;;10.32;5.50;;;;;;;12.41;72.23;101476.53;4995408;28;99135;-31
2023/04/21 09:02:56;;;;;;;11.25;6.32;;;;;;;12.32;72.07;101478.84;4995479;28;96587;-30
2023/04/21 09:05:23;;;;;;;12.77;6.18;;;;;;;12.46;72.01;101478.00;4993940;28;96904;-31
2023/04/21 09:07:49;;;;;;;12.50;7.03;;;;;;;12.86;71.13;101464.72;4993187;28;98896;-30
2023/04/21 09:10:22;;;;;;;15.05;8.18;;;;;;;13.24;69.47;101471.47;4994921;28;97796;-30
2023/04/21 09:12:50;;;;;;;10.75;6.95;;;;;;;13.34;69.38;101476.25;4993831;28;96616;-31
2023/04/21 09:15:16;;;;;;;9.15;5.95;;;;;;;13.47;67.19;101480.97;4993787;28;96768;-30
2023/04/21 09:17:44;;;;;;;13.95;6.10;;;;;;;13.28;68.28;101476.66;4994966;28;97320;-31
2023/04/21 09:20:18;;;;;;;12.65;6.75;;;;;;;13.17;69.87;101480.00;4993351;28;100967;-30
2023/04/21 09:22:44;;;;;;;9.98;6.57;;;;;;;12.99;69.98;101481.19;4994976;28;96747;-31
2023/04/21 09:25:14;;;;;;;12.07;6.68;;;;;;;12.99;69.34;101475.75;4993544;28;96836;-32
2023/04/21 09:27:40;;;;;;;11.82;6.25;;;;;;;12.95;69.80;101466.88;4993111;28;101178;-30
2023/04/21 09:30:07;;;;;;;11.82;6.82;;;;;;;13.02;69.98;101477.41;4994316;28;98781;-30
2023/04/21 09:32:37;;;;;;;13.63;7.70;;;;;;;13.03;69.91;101479.13;4992826;28;96960;-31
2023/04/21 09:35:04;;;;;;;8.90;6.00;;;;;;;13.21;70.16;101475.28;4994960;28;96786;-30
2023/04/21 09:37:33;;;;;;;10.88;5.80;;;;;;;13.36;69.50;101478.91;4992850;28;101332;-31
2023/04/21 09:39:58;;;;;;;9.60;6.47;;;;;;;13.22;68.53;101474.28;4994405;28;99211;-30
2023/04/21 09:42:31;;;;;;;10.15;6.43;;;;;;;13.43;68.97;101474.81;4995086;28;96666;-31
2023/04/21 09:44:56;;;;;;;11.48;6.15;;;;;;;13.46;67.83;101465.59;4993393;28;96919;-30
2023/04/21 09:47:22;;;;;;;10.27;6.30;;;;;;;13.78;66.81;101467.09;4994486;28;97932;-30
2023/04/21 09:49:51;;;;;;;9.63;6.00;;;;;;;13.99;65.48;101466.66;4993122;28;100927;-30
2023/04/21 09:52:20;;;;;;;10.23;6.28;;;;;;;13.97;65.72;101466.78;4993357;28;96947;-30
2023/04/21 09:54:51;;;;;;;9.15;6.13;;;;;;;13.94;66.41;101452.47;4994749;28;96588;-30
2023/04/21 09:57:27;;;;;;;9.45;5.63;;;;;;;13.87;64.33;101459.31;4993731;28;97961;-31
2023/04/21 10:00:04;;;;;;;9.02;5.95;;;;;;;13.94;65.58;101468.81;4992932;28;100606;-30
2023/04/21 10:02:30;;;;;;;11.00;6.20;;;;;;;14.13;66.05;101457.56;4994314;28;96729;-31
2023/04/21 10:04:56;;;;;;;12.60;6.20;;;;;;;14.50;64.43;101466.00;4993145;28;96905;-32
2023/04/21 10:07:21;;;;;;;10.77;6.25;;;;;;;14.66;64.26;101455.84;4994409;28;97546;-32
2023/04/21 10:09:53;;;;;;;9.95;5.78;;;;;;;14.72;63.47;101449.94;4994011;28;99514;-31
2023/04/21 10:12:18;;;;;;;;;;;;;;;14.96;62.58;101454.66;4995099;28;96467;-30
2023/04/21 10:14:43;;;;;;;8.85;5.18;;;;;;;15.07;61.01;101447.47;4994761;28;97079;-30
2023/04/21 10:17:10;;;;;;;9.43;5.45;;;;;;;14.89;60.50;101439.72;4993841;28;99203;-31
2023/04/21 10:19:39;;;;;;;10.00;5.63;;;;;;;15.11;62.12;101450.88;4992705;28;100998;-30
2023/04/21 10:22:08;;;;;;;11.20;6.72;;;;;;;14.88;63.05;101447.03;4993796;28;97158;-30
2023/04/21 10:24:41;;;;;;;8.68;5.80;;;;;;;15.08;62.20;101441.00;4994184;28;96750;-31
2023/04/21 10:27:10;;;;;;;9.43;5.35;;;;;;;15.46;61.29;101431.06;4992641;28;102013;-30
2023/04/21 10:29:36;;;;;;;6.85;4.75;;;;;;;15.34;59.91;101421.03;4993732;28;97827;-30
2023/04/21 10:32:02;;;;;;;9.40;5.85;;;;;;;15.42;61.78;101427.69;4993507;28;96826;-30
2023/04/21 10:34:33;;;;;;;10.65;5.88;;;;;;;15.58;60.93;101424.69;4992819;28;96804;-31
2023/04/21 10:36:58;;;;;;;9.00;4.90;;;;;;;15.89;59.69;101436.97;4993352;28;101401;-30
2023/04/21 10:39:29;;;;;;;7.10;4.97;;;;;;;16.09;58.87;101416.38;4997672;28;97951;-32
2023/04/21 10:41:57;;;;;;;9.95;5.30;;;;;;;15.67;58.45;101412.22;4995876;28;96633;-30
2023/04/21 10:44:23;;;;;;;8.05;5.13;;;;;;;15.37;60.45;101418.06;4996161;28;96817;-31
2023/04/21 10:46:50;;;;;;;7.68;4.72;;;;;;;15.19;59.66;101406.66;4996587;28;99497;-32
2023/04/21 10:49:24;;;;;;;9.57;4.95;;;;;;;15.41;58.46;101420.47;4997114;28;97925;-30
2023/04/21 10:51:58;;;;;;;9.32;5.10;;;;;;;15.38;59.86;101409.78;4996090;28;96510;-31
2023/04/21 10:54:25;;;;;;;9.55;4.88;;;;;;;15.47;59.14;101417.31;4997100;28;96820;-31
2023/04/21 10:56:52;;;;;;;8.18;4.43;;;;;;;15.70;59.19;101406.56;4995469;28;101325;-30
2023/04/21 10:59:18;;;;;;;7.82;4.25;;;;;;;15.44;58.80;101392.06;4995521;28;100802;-30
2023/04/21 11:01:44;;;;;;;7.35;4.43;;;;;;;15.58;57.70;101399.25;4995883;28;96589;-31
2023/04/21 11:04:16;;;;;;;5.78;3.88;;;;;;;15.55;56.69;101397.63;4996339;28;96614;-30
2023/04/21 11:06:42;;;;;;;7.72;4.68;;;;;;;15.61;58.52;101399.91;4995414;28;101455;-32
2023/04/21 11:09:08;;;;;;;7.53;4.82;;;;;;;15.64;58.25;101390.63;4994892;28;101167;-30
2023/04/21 11:11:35;;;;;;;8.07;4.68;;;;;;;16.01;58.04;101385.13;4996431;28;96726;-30
2023/04/21 11:14:01;;;;;;;7.43;3.92;;;;;;;15.85;57.49;101386.31;4995692;28;96975;-31
2023/04/21 11:16:27;;;;;;;8.93;5.03;;;;;;;16.05;56.68;101381.19;4995284;28;101405;-31
2023/04/21 11:18:55;;;;;;;9.98;4.68;;;;;;;16.52;56.68;101377.53;4996694;28;97401;-30
2023/04/21 11:21:21;;;;;;;6.78;4.15;;;;;;;16.96;55.29;101372.28;4995614;28;96622;-31